RJAA

Tokyo Narita Airport

Airport
ICAO code
RJAA
IATA Code
NRT
Summary
ICAO Region
APAC
ICAO Territory
Location

Narita, Chiba Prefecture

Serving
Tokyo
Elevation
135 ft
Coordinates
35° 46' 25" N , 140° 23' 18" E
KCC
Cfa
Metar
Observation
RJAA 101000Z 17008KT 9999 FEW020 BKN/// 28/25 Q1011 NOSIG
Station
New Tokyo Inter-National Airport
Date/Time
2022-08-10 10:00:00
Wind direction
170°
Wind speed
08 kts
Lowest cloud amount
few clouds
Temperature
28°C
Dew point
25°C
Humidity
83%
QNH
1011 hPa
Weather condition
n/a

Also know as Tokyo Narita Airport or Narita International Airport, Narita was formerly the major international airport serving Tokyo until Haneda reopened to intercontinental traffic. Narita airport is located 57.5 km east of Tokyo and 7 km east-southeast of the city of Narita.

Climatology

Humid subtropical climate (Köppen climate classification Cfa).

Runways

Designator Length Width Surface Rops
16L/34R 2180 60 ASP Yes/Yes
16R/34L 4000 60 ASP Yes/Yes

SKYbrary Partners:

Safety knowledge contributed by: